createdAt,value
2023-02-07T00:01:25.136Z,22.50
2023-02-07T00:03:54.416Z,22.00
2023-02-07T00:08:50.165Z,24.98
2023-02-07T00:11:20.287Z,22.67
2023-02-07T00:13:50.914Z,23.40
2023-02-07T00:16:18.631Z,22.65
2023-02-07T00:18:45.381Z,25.02
2023-02-07T00:21:14.963Z,23.95
2023-02-07T00:23:42.641Z,27.73
2023-02-07T00:26:10.666Z,25.08
2023-02-07T00:28:37.515Z,27.92
2023-02-07T00:31:13.995Z,29.77
2023-02-07T00:33:42.194Z,29.40
2023-02-07T00:36:13.953Z,24.75
2023-02-07T00:38:41.029Z,28.80
2023-02-07T00:41:08.106Z,27.38
2023-02-07T00:43:35.064Z,27.52
2023-02-07T00:46:05.613Z,29.40
2023-02-07T00:48:32.836Z,30.17
2023-02-07T00:51:00.348Z,31.02
2023-02-07T00:53:28.567Z,27.63
2023-02-07T00:55:55.167Z,29.23
2023-02-07T00:58:22.027Z,31.42
2023-02-07T01:00:49.498Z,29.75
2023-02-07T01:03:16.913Z,29.48
2023-02-07T01:05:43.717Z,28.73
2023-02-07T01:08:10.474Z,27.85
2023-02-07T01:10:40.477Z,30.70
2023-02-07T01:13:07.103Z,35.10
2023-02-07T01:15:38.265Z,30.42
2023-02-07T01:18:06.285Z,30.67
2023-02-07T01:20:33.310Z,31.30
2023-02-07T01:23:00.137Z,32.53
2023-02-07T01:25:26.857Z,34.92
2023-02-07T01:27:53.508Z,33.70
2023-02-07T01:30:20.209Z,33.72
2023-02-07T01:32:46.964Z,29.95
2023-02-07T01:35:13.580Z,32.78
2023-02-07T01:37:40.223Z,35.95
2023-02-07T01:40:07.598Z,32.97
2023-02-07T01:42:34.269Z,32.15
2023-02-07T01:45:25.662Z,34.85
2023-02-07T01:47:56.222Z,34.28
2023-02-07T01:50:23.036Z,36.10
2023-02-07T01:52:49.894Z,38.25
2023-02-07T01:55:25.312Z,31.63
2023-02-07T01:57:52.285Z,35.47
2023-02-07T02:00:19.338Z,33.83
2023-02-07T02:02:46.199Z,38.80
2023-02-07T02:05:15.004Z,36.42
2023-02-07T02:07:41.874Z,33.60
2023-02-07T02:10:21.462Z,36.17
2023-02-07T02:13:09.633Z,33.15
2023-02-07T02:16:03.582Z,34.33
2023-02-07T02:18:47.632Z,37.78
2023-02-07T02:21:26.103Z,39.78
2023-02-07T02:24:32.615Z,38.70
2023-02-07T02:27:11.567Z,39.10
2023-02-07T02:29:59.757Z,40.05
2023-02-07T02:32:47.689Z,37.42
2023-02-07T02:35:28.364Z,40.08
2023-02-07T02:38:13.252Z,40.75
2023-02-07T02:41:04.542Z,40.65
2023-02-07T02:43:53.968Z,38.72
2023-02-07T02:46:25.447Z,41.83
2023-02-07T02:48:53.862Z,40.20
2023-02-07T02:51:20.824Z,38.47
2023-02-07T02:53:55.187Z,38.53
2023-02-07T02:56:38.343Z,40.33
2023-02-07T02:59:37.298Z,37.50
2023-02-07T03:02:07.033Z,39.00
2023-02-07T03:04:45.599Z,37.60
2023-02-07T03:07:31.699Z,39.50
2023-02-07T03:10:30.297Z,38.03
2023-02-07T03:13:22.190Z,35.97
2023-02-07T03:15:55.236Z,40.53
2023-02-07T03:18:39.403Z,38.28
2023-02-07T03:21:16.317Z,38.45
2023-02-07T03:23:45.746Z,40.40
2023-02-07T03:26:12.872Z,37.03
2023-02-07T03:28:41.626Z,35.65
2023-02-07T03:31:11.595Z,38.03
2023-02-07T03:33:39.455Z,38.35
2023-02-07T03:36:13.492Z,40.17
2023-02-07T03:38:40.123Z,40.92
2023-02-07T03:41:14.672Z,34.83
2023-02-07T03:43:43.189Z,38.72
2023-02-07T03:46:10.651Z,41.60
2023-02-07T03:48:37.977Z,39.35
2023-02-07T03:51:04.873Z,38.97
2023-02-07T03:53:31.565Z,33.53
2023-02-07T03:55:58.288Z,33.17
2023-02-07T03:58:25.347Z,34.92
2023-02-07T04:00:52.015Z,32.72
2023-02-07T04:03:18.775Z,34.65
2023-02-07T04:05:46.320Z,32.22
2023-02-07T04:08:13.031Z,33.08
2023-02-07T04:10:39.713Z,35.75
2023-02-07T04:13:06.487Z,30.48
2023-02-07T04:15:33.508Z,30.20
2023-02-07T04:18:00.120Z,31.17
2023-02-07T04:20:26.729Z,34.22
2023-02-07T04:22:53.322Z,31.33
2023-02-07T04:25:20.565Z,32.95
2023-02-07T04:27:47.137Z,33.72
2023-02-07T04:30:13.887Z,35.25
2023-02-07T04:32:40.473Z,33.67
2023-02-07T04:35:07.600Z,32.38
2023-02-07T04:37:34.210Z,31.90
2023-02-07T04:40:00.851Z,31.85
2023-02-07T04:42:27.438Z,36.00
2023-02-07T04:44:54.071Z,34.30
2023-02-07T04:47:20.725Z,34.05
2023-02-07T04:49:47.341Z,33.75
2023-02-07T04:52:14.190Z,33.00
2023-02-07T04:54:40.811Z,32.75
2023-02-07T04:57:07.452Z,38.53
2023-02-07T04:59:34.066Z,40.50
2023-02-07T05:02:00.741Z,42.60
2023-02-07T05:04:27.440Z,42.63
2023-02-07T05:06:54.064Z,44.75
2023-02-07T05:09:20.726Z,43.00
2023-02-07T05:11:47.279Z,44.13
2023-02-07T05:14:13.951Z,47.63
2023-02-07T05:16:40.545Z,46.72
2023-02-07T05:19:07.389Z,48.20
2023-02-07T05:21:34.072Z,46.50
2023-02-07T05:24:00.758Z,48.95
2023-02-07T05:26:27.353Z,45.45
2023-02-07T05:28:54.063Z,48.35
2023-02-07T05:31:41.790Z,43.67
2023-02-07T05:34:08.524Z,48.38
2023-02-07T05:36:35.133Z,51.42
2023-02-07T05:39:01.940Z,50.78
2023-02-07T05:41:29.093Z,48.88
2023-02-07T05:43:55.651Z,55.90
2023-02-07T05:46:22.290Z,49.33
2023-02-07T05:48:49.916Z,50.88
2023-02-07T05:51:16.606Z,54.67
2023-02-07T05:53:43.209Z,47.00
2023-02-07T05:56:09.861Z,54.00
2023-02-07T05:58:36.540Z,55.28
2023-02-07T06:01:03.278Z,54.45
2023-02-07T06:03:30.008Z,54.17
2023-02-07T06:05:56.750Z,51.85
2023-02-07T06:08:23.449Z,50.92
2023-02-07T06:10:50.156Z,49.78
2023-02-07T06:13:16.856Z,51.35
2023-02-07T06:15:43.648Z,45.90
2023-02-07T06:18:10.361Z,48.47
2023-02-07T06:20:36.973Z,48.35
2023-02-07T06:23:03.659Z,48.30
2023-02-07T06:25:30.286Z,50.47
2023-02-07T06:27:57.002Z,47.25
2023-02-07T06:30:23.629Z,54.17
2023-02-07T06:32:50.284Z,52.33
2023-02-07T06:35:17.015Z,46.00
2023-02-07T06:37:43.648Z,55.72
2023-02-07T06:40:10.710Z,49.47
2023-02-07T06:42:37.435Z,53.38
2023-02-07T06:45:04.598Z,60.47
2023-02-07T06:47:31.318Z,55.78
2023-02-07T06:49:58.052Z,53.90
2023-02-07T06:52:24.762Z,58.88
2023-02-07T06:54:51.332Z,50.25
2023-02-07T06:57:17.959Z,50.72
2023-02-07T06:59:44.685Z,55.75
2023-02-07T07:02:13.101Z,54.35
2023-02-07T07:04:39.904Z,52.87
2023-02-07T07:07:06.578Z,52.50
2023-02-07T07:09:33.216Z,56.78
2023-02-07T07:11:59.886Z,57.80
2023-02-07T07:14:26.586Z,56.47
2023-02-07T07:16:54.249Z,57.63
2023-02-07T07:21:49.680Z,56.53
2023-02-07T07:24:16.353Z,54.20
2023-02-07T07:26:49.448Z,54.40
2023-02-07T07:29:18.279Z,50.38
2023-02-07T07:31:45.701Z,55.10
2023-02-07T07:34:12.608Z,54.35
2023-02-07T07:36:39.270Z,51.25
2023-02-07T07:39:06.055Z,47.83
2023-02-07T07:41:32.731Z,50.22
2023-02-07T07:43:59.344Z,54.65
2023-02-07T07:46:26.034Z,55.17
2023-02-07T07:48:52.961Z,51.20
2023-02-07T07:51:19.567Z,55.72
2023-02-07T07:53:46.275Z,54.75
2023-02-07T07:56:12.855Z,47.45
2023-02-07T07:58:39.474Z,52.67
2023-02-07T08:01:06.151Z,47.00
2023-02-07T08:03:32.912Z,49.08
2023-02-07T08:05:59.607Z,48.92
2023-02-07T08:08:26.400Z,48.10
2023-02-07T08:10:53.009Z,46.72
2023-02-07T08:13:20.201Z,46.97
2023-02-07T08:15:47.651Z,49.20
2023-02-07T08:18:14.356Z,43.42
2023-02-07T08:20:41.409Z,46.67
2023-02-07T08:23:08.124Z,51.85
2023-02-07T08:25:34.755Z,45.72
2023-02-07T08:28:04.095Z,52.20
2023-02-07T08:30:31.273Z,51.95
2023-02-07T08:32:57.942Z,49.15
2023-02-07T08:35:24.785Z,49.53
2023-02-07T08:37:51.449Z,47.65
2023-02-07T08:40:18.650Z,48.75
2023-02-07T08:42:45.642Z,49.20
2023-02-07T08:45:12.392Z,48.17
2023-02-07T08:47:39.188Z,46.17
2023-02-07T08:50:06.727Z,42.63
2023-02-07T08:52:33.744Z,44.08
2023-02-07T08:55:00.462Z,41.10
2023-02-07T08:57:27.266Z,41.25
2023-02-07T08:59:54.266Z,43.22
2023-02-07T09:02:21.116Z,41.25
2023-02-07T09:04:47.979Z,41.40
2023-02-07T09:07:15.460Z,37.50
2023-02-07T09:09:42.106Z,39.53
2023-02-07T09:12:09.836Z,39.55
2023-02-07T09:14:37.040Z,40.35
2023-02-07T09:17:04.095Z,37.53
2023-02-07T09:19:30.871Z,38.78
2023-02-07T09:21:57.587Z,39.78
2023-02-07T09:24:24.301Z,40.08
2023-02-07T09:26:50.916Z,35.22
2023-02-07T09:29:17.681Z,40.00
2023-02-07T09:31:44.864Z,34.72
2023-02-07T09:34:11.660Z,39.80
2023-02-07T09:36:38.613Z,39.92
2023-02-07T09:39:06.514Z,36.45
2023-02-07T09:42:06.651Z,38.00
2023-02-07T09:44:54.608Z,40.30
2023-02-07T09:47:24.336Z,41.13
2023-02-07T09:49:59.245Z,36.13
2023-02-07T09:52:35.980Z,35.08
2023-02-07T09:55:05.524Z,37.58
2023-02-07T10:00:18.899Z,36.25
2023-02-07T10:02:49.677Z,35.83
2023-02-07T10:05:25.234Z,38.65
2023-02-07T10:07:52.138Z,35.95
2023-02-07T10:10:35.352Z,38.25
2023-02-07T10:13:02.356Z,37.15
2023-02-07T10:16:16.760Z,41.05
2023-02-07T10:18:49.459Z,42.70
2023-02-07T10:22:08.300Z,36.45
2023-02-07T10:24:51.041Z,37.40
2023-02-07T10:27:27.930Z,38.72
2023-02-07T10:30:03.510Z,37.80
2023-02-07T10:32:38.272Z,38.90
2023-02-07T10:35:29.616Z,41.88
2023-02-07T10:38:00.633Z,38.65
2023-02-07T10:40:44.720Z,38.33
2023-02-07T10:43:24.831Z,38.97
2023-02-07T10:46:00.397Z,34.88
2023-02-07T10:48:31.058Z,34.45
2023-02-07T10:51:00.049Z,32.33
2023-02-07T10:53:55.123Z,33.50
2023-02-07T10:56:28.129Z,32.80
2023-02-07T10:58:57.623Z,60.40
2023-02-07T11:01:30.669Z,39.17
2023-02-07T11:03:58.302Z,42.83
2023-02-07T11:06:34.266Z,38.90
2023-02-07T11:09:21.217Z,34.60
2023-02-07T11:11:52.740Z,35.83
2023-02-07T11:14:26.805Z,34.65
2023-02-07T11:16:55.838Z,32.35
2023-02-07T11:19:25.834Z,32.88
2023-02-07T11:22:04.392Z,35.25
2023-02-07T11:24:35.843Z,33.53
2023-02-07T11:27:15.542Z,32.38
2023-02-07T11:29:58.337Z,33.20
2023-02-07T11:32:27.485Z,29.77
2023-02-07T11:34:57.314Z,28.63
2023-02-07T11:37:34.845Z,28.33
2023-02-07T11:40:19.333Z,27.98
2023-02-07T11:42:56.986Z,26.38
2023-02-07T11:45:24.362Z,25.95
2023-02-07T11:47:55.803Z,27.85
2023-02-07T11:50:29.733Z,25.25
2023-02-07T11:52:59.366Z,22.63
2023-02-07T11:55:40.045Z,22.08
2023-02-07T11:58:23.729Z,19.05
2023-02-07T12:00:50.861Z,18.80
2023-02-07T12:03:26.530Z,18.52
2023-02-07T12:05:57.503Z,21.67
2023-02-07T12:08:27.593Z,24.92
2023-02-07T12:11:10.683Z,28.83
2023-02-07T12:13:42.886Z,30.02
2023-02-07T12:16:24.406Z,23.60
2023-02-07T12:19:04.101Z,21.20
2023-02-07T12:21:36.262Z,24.95
2023-02-07T12:24:35.076Z,24.55
2023-02-07T12:27:18.555Z,19.08
2023-02-07T12:29:54.492Z,20.25
2023-02-07T12:32:30.421Z,25.25
2023-02-07T12:35:15.324Z,20.75
2023-02-07T12:38:03.276Z,23.85
2023-02-07T12:40:50.904Z,22.95
2023-02-07T12:43:34.057Z,20.52
2023-02-07T12:46:00.798Z,21.48
2023-02-07T12:48:52.155Z,19.15
2023-02-07T12:52:00.656Z,19.17
2023-02-07T12:54:42.574Z,20.50
2023-02-07T12:57:31.256Z,20.70
2023-02-07T13:00:00.497Z,20.85
2023-02-07T13:02:35.627Z,21.85
2023-02-07T13:05:22.970Z,23.83
2023-02-07T13:08:08.503Z,20.02
2023-02-07T13:11:04.072Z,18.80
2023-02-07T13:14:12.039Z,18.92
2023-02-07T13:16:41.601Z,24.90
2023-02-07T13:19:50.708Z,25.95
2023-02-07T13:22:43.391Z,23.67
2023-02-07T13:25:21.735Z,27.20
2023-02-07T13:27:52.406Z,26.15
2023-02-07T13:30:20.841Z,22.40
2023-02-07T13:32:48.877Z,23.55
2023-02-07T13:35:23.840Z,27.83
2023-02-07T13:38:12.599Z,23.40
2023-02-07T13:41:04.087Z,20.10
2023-02-07T13:43:50.901Z,21.38
2023-02-07T13:46:56.547Z,21.70
2023-02-07T13:49:26.073Z,21.33
2023-02-07T13:52:04.626Z,22.20
2023-02-07T13:55:03.821Z,19.67
2023-02-07T13:57:54.919Z,20.60
2023-02-07T14:00:25.232Z,21.05
2023-02-07T14:02:54.379Z,21.15
2023-02-07T14:05:28.236Z,20.45
2023-02-07T14:07:58.895Z,17.90
2023-02-07T14:10:53.952Z,17.85
2023-02-07T14:13:33.811Z,22.75
2023-02-07T14:16:10.701Z,19.40
2023-02-07T14:18:38.572Z,20.90
2023-02-07T14:21:12.147Z,18.95
2023-02-07T14:24:09.118Z,16.98
2023-02-07T14:26:39.168Z,14.85
2023-02-07T14:29:38.520Z,20.95
2023-02-07T14:35:04.947Z,22.70
2023-02-07T14:37:41.617Z,24.25
2023-02-07T14:40:34.284Z,23.50
2023-02-07T14:43:08.685Z,22.90
2023-02-07T14:45:37.759Z,24.55
2023-02-07T14:48:07.047Z,24.70
2023-02-07T14:50:42.340Z,27.98
2023-02-07T14:53:14.669Z,27.13
2023-02-07T14:55:49.760Z,28.13
2023-02-07T14:58:38.778Z,27.77
2023-02-07T15:01:12.043Z,25.90
2023-02-07T15:03:38.752Z,29.65
2023-02-07T15:06:31.683Z,29.95
2023-02-07T15:09:02.369Z,27.10
2023-02-07T15:11:30.547Z,27.60
2023-02-07T15:14:03.340Z,27.58
2023-02-07T15:16:33.526Z,26.40
2023-02-07T15:19:19.549Z,30.70
2023-02-07T15:21:49.680Z,29.48
2023-02-07T15:24:24.865Z,31.77
2023-02-07T15:26:57.358Z,33.65
2023-02-07T15:29:27.332Z,26.25
2023-02-07T15:31:54.500Z,29.20
2023-02-07T15:34:31.714Z,32.97
2023-02-07T15:37:14.731Z,31.02
2023-02-07T15:39:41.658Z,32.50
2023-02-07T15:42:18.093Z,31.42
2023-02-07T15:44:53.471Z,31.05
2023-02-07T15:47:29.404Z,31.50
2023-02-07T15:50:01.524Z,36.05
2023-02-07T15:52:48.805Z,36.63
2023-02-07T15:55:32.120Z,38.22
2023-02-07T15:57:59.053Z,33.33
2023-02-07T16:00:31.958Z,36.45
2023-02-07T16:03:14.971Z,40.72
2023-02-07T16:05:41.881Z,36.28
2023-02-07T16:08:31.600Z,34.78
2023-02-07T16:11:15.162Z,37.92
2023-02-07T16:13:55.940Z,36.95
2023-02-07T16:16:29.065Z,35.63
2023-02-07T16:19:14.165Z,36.38
2023-02-07T16:21:42.601Z,42.10
2023-02-07T16:24:21.841Z,41.53
2023-02-07T16:29:19.114Z,39.35
2023-02-07T16:31:46.306Z,46.55
2023-02-07T16:34:16.997Z,42.40
2023-02-07T16:36:44.233Z,45.00
2023-02-07T16:39:10.940Z,53.72
2023-02-07T16:41:41.550Z,43.47
2023-02-07T16:44:15.647Z,43.42
2023-02-07T16:46:42.540Z,45.20
2023-02-07T16:49:16.864Z,49.58
2023-02-07T16:51:44.300Z,48.33
2023-02-07T16:54:11.183Z,47.90
2023-02-07T16:56:38.481Z,47.05
2023-02-07T16:59:05.798Z,46.85
2023-02-07T17:01:33.380Z,47.55
2023-02-07T17:04:00.329Z,47.83
2023-02-07T17:06:27.409Z,46.03
2023-02-07T17:08:54.375Z,41.25
2023-02-07T17:11:26.593Z,40.08
2023-02-07T17:13:54.992Z,38.65
2023-02-07T17:16:22.325Z,41.73
2023-02-07T17:18:49.601Z,39.08
2023-02-07T17:21:16.596Z,41.05
2023-02-07T17:23:45.957Z,41.03
2023-02-07T17:28:50.062Z,39.50
2023-02-07T17:31:16.833Z,41.15
2023-02-07T17:33:43.600Z,43.70
2023-02-07T17:36:12.757Z,41.53
2023-02-07T17:38:39.648Z,39.50
2023-02-07T17:41:08.083Z,42.25
2023-02-07T17:43:34.688Z,40.33
2023-02-07T17:46:01.504Z,37.33
2023-02-07T17:48:32.640Z,39.40
2023-02-07T17:50:59.404Z,46.92
2023-02-07T17:53:25.964Z,47.63
2023-02-07T17:55:52.853Z,53.58
2023-02-07T17:58:19.481Z,44.13
2023-02-07T18:00:46.191Z,48.70
2023-02-07T18:03:12.771Z,47.03
2023-02-07T18:05:42.235Z,49.58
2023-02-07T18:08:13.472Z,50.78
2023-02-07T18:10:40.573Z,42.75
2023-02-07T18:13:07.563Z,48.88
2023-02-07T18:15:34.304Z,45.45
2023-02-07T18:18:01.389Z,48.83
2023-02-07T18:20:32.254Z,44.30
2023-02-07T18:23:00.479Z,47.47
2023-02-07T18:25:29.721Z,49.25
2023-02-07T18:27:58.463Z,56.78
2023-02-07T18:30:27.709Z,48.15
2023-02-07T18:32:54.655Z,51.83
2023-02-07T18:35:21.989Z,52.22
2023-02-07T18:37:48.667Z,48.33
2023-02-07T18:40:16.043Z,51.08
2023-02-07T18:42:42.843Z,55.60
2023-02-07T18:45:10.250Z,56.40
2023-02-07T18:47:36.955Z,51.80
2023-02-07T18:50:03.729Z,58.42
2023-02-07T18:52:30.311Z,55.10
2023-02-07T18:54:57.004Z,58.67
2023-02-07T18:57:23.710Z,52.50
2023-02-07T18:59:50.418Z,58.70
2023-02-07T19:02:17.867Z,56.17
2023-02-07T19:04:44.577Z,58.40
2023-02-07T19:07:12.153Z,59.75
2023-02-07T19:09:38.943Z,56.97
2023-02-07T19:12:07.504Z,57.53
2023-02-07T19:14:35.710Z,61.03
2023-02-07T19:17:02.652Z,69.50
2023-02-07T19:19:31.070Z,64.50
2023-02-07T19:21:58.489Z,62.03
2023-02-07T19:24:25.626Z,63.60
2023-02-07T19:26:56.101Z,59.67
2023-02-07T19:29:29.809Z,69.38
2023-02-07T19:32:01.918Z,64.88
2023-02-07T19:34:29.271Z,61.88
2023-02-07T19:36:56.052Z,57.28
2023-02-07T19:39:23.302Z,60.47
2023-02-07T19:41:51.212Z,54.33
2023-02-07T19:44:23.680Z,59.80
2023-02-07T19:46:50.297Z,60.85
2023-02-07T19:49:17.073Z,50.75
2023-02-07T19:51:43.737Z,50.88
2023-02-07T19:54:10.835Z,56.25
2023-02-07T19:56:37.751Z,50.95
2023-02-07T19:59:06.394Z,60.28
2023-02-07T20:01:34.704Z,56.90
2023-02-07T20:04:01.791Z,59.10
2023-02-07T20:06:33.042Z,61.88
2023-02-07T20:09:02.624Z,57.45
2023-02-07T20:11:29.612Z,61.97
2023-02-07T20:14:03.448Z,55.33
2023-02-07T20:16:33.536Z,54.70
2023-02-07T20:19:00.874Z,57.10
2023-02-07T20:21:29.954Z,56.67
2023-02-07T20:23:57.640Z,59.45
2023-02-07T20:26:31.757Z,59.38
2023-02-07T20:29:03.643Z,65.13
2023-02-07T20:31:32.120Z,61.88
2023-02-07T20:33:59.915Z,67.75
2023-02-07T20:36:27.070Z,59.45
2023-02-07T20:38:56.074Z,64.00
2023-02-07T20:41:29.316Z,66.13
2023-02-07T20:44:04.613Z,63.42
2023-02-07T20:46:34.260Z,68.80
2023-02-07T20:51:32.833Z,72.35
2023-02-07T20:54:04.900Z,72.32
2023-02-07T20:56:32.797Z,66.20
2023-02-07T20:59:00.612Z,74.35
2023-02-07T21:01:30.469Z,83.22
2023-02-07T21:04:00.192Z,81.63
2023-02-07T21:06:28.537Z,79.63
2023-02-07T21:09:01.600Z,74.13
2023-02-07T21:11:40.209Z,78.90
2023-02-07T21:14:10.762Z,79.28
2023-02-07T21:16:38.050Z,72.93
2023-02-07T21:19:05.009Z,75.18
2023-02-07T21:21:32.095Z,72.82
2023-02-07T21:23:59.241Z,68.47
2023-02-07T21:26:27.280Z,77.13
2023-02-07T21:29:01.631Z,77.55
2023-02-07T21:31:30.000Z,71.10
2023-02-07T21:33:57.358Z,66.07
2023-02-07T21:36:27.201Z,72.78
2023-02-07T21:38:55.155Z,74.45
2023-02-07T21:41:24.895Z,75.05
2023-02-07T21:43:51.620Z,72.13
2023-02-07T21:46:24.037Z,78.28
2023-02-07T21:48:53.666Z,69.50
2023-02-07T21:51:22.754Z,67.05
2023-02-07T21:53:50.823Z,74.97
2023-02-07T21:56:21.083Z,68.10
2023-02-07T21:58:53.126Z,73.68
2023-02-07T22:01:20.529Z,72.53
2023-02-07T22:03:48.930Z,70.55
2023-02-07T22:06:17.790Z,73.63
2023-02-07T22:08:57.176Z,74.93
2023-02-07T22:11:26.630Z,75.28
2023-02-07T22:13:54.245Z,70.85
2023-02-07T22:16:23.269Z,67.50
2023-02-07T22:18:52.315Z,80.07
2023-02-07T22:21:28.453Z,76.05
2023-02-07T22:23:57.939Z,71.20
2023-02-07T22:26:26.243Z,76.88
2023-02-07T22:28:53.414Z,80.23
2023-02-07T22:31:23.544Z,81.15
2023-02-07T22:33:51.988Z,75.68
2023-02-07T22:36:23.717Z,80.37
2023-02-07T22:38:50.835Z,81.95
2023-02-07T22:41:17.882Z,78.53
2023-02-07T22:43:44.911Z,71.50
2023-02-07T22:46:14.312Z,77.43
2023-02-07T22:48:41.356Z,81.47
2023-02-07T22:51:13.587Z,82.70
2023-02-07T22:53:41.266Z,71.68
2023-02-07T22:56:08.560Z,79.90
2023-02-07T22:58:35.817Z,74.82
2023-02-07T23:01:03.430Z,79.15
2023-02-07T23:03:30.238Z,80.55
2023-02-07T23:05:57.043Z,82.03
2023-02-07T23:08:23.772Z,82.97
2023-02-07T23:10:50.446Z,78.15
2023-02-07T23:13:17.089Z,77.15
2023-02-07T23:15:47.707Z,73.45
2023-02-07T23:18:15.749Z,71.63
2023-02-07T23:20:44.669Z,77.53
2023-02-07T23:23:12.750Z,74.40
2023-02-07T23:25:46.645Z,77.53
2023-02-07T23:28:14.012Z,70.07
2023-02-07T23:30:42.533Z,77.55
2023-02-07T23:33:10.393Z,81.22
2023-02-07T23:35:37.089Z,72.07
2023-02-07T23:38:06.987Z,71.60
2023-02-07T23:40:34.005Z,76.60
2023-02-07T23:43:00.757Z,77.15
2023-02-07T23:45:27.399Z,72.40
2023-02-07T23:47:54.348Z,75.38
2023-02-07T23:50:22.374Z,74.85
2023-02-07T23:52:49.000Z,72.32
2023-02-07T23:55:15.776Z,70.47
2023-02-07T23:57:42.433Z,72.95
